• Join FlightAware (Why Join?)
  • Login
  • US Flag 
11:16AM EST


 

Airport Tracker/Info


-or-


 

Live Flight TrackerFlight Track Log ✈ UAL4476 ✈ 10-Apr-2013 ✈ KCLE - KBOS

Flight Track Log - Related Links

Times and Time Zones

All times are in EDT time to prevent confusion due to time zone crossing. See the UAL4476 flight status page for this flight to view local times or setup timezone preferences in your user account.

Time Position Orientation Groundspeed Altitude Reporting Facility
EDT Latitude Longitude Course Direction KTS MPH feet Rate Location/Type
08:51AM 41.3897 -81.8867 269° West 168 193 1,900  Level Cleveland Center
08:51AM 41.3892 -81.9256 269° West 188 216 3,000 1,706 Climbing Cleveland Center
08:52AM 41.3964 -82.0169 276° West 217 250 5,000 2,091 Climbing Cleveland Center
08:53AM 41.4583 -82.0600 332° Northwest 210 242 7,600 2,400 Climbing Cleveland Center
08:54AM 41.5258 -82.0086 30° Northeast 231 266 9,800 1,650 Climbing Cleveland Center
08:55AM 41.5747 -81.9208 53° Northeast 249 287 10,900 1,200 Climbing Cleveland Center
08:56AM 41.6325 -81.8083 55° Northeast 304 350 12,200 1,200 Climbing Cleveland Center
08:57AM 41.6942 -81.6872 56° Northeast 366 421 13,300 1,300 Climbing Cleveland Center
08:58AM 41.7597 -81.5658 54° Northeast 401 461 14,800 1,500 Climbing Cleveland Center
08:59AM 41.8253 -81.4414 55° Northeast 411 473 16,300 1,500 Climbing Cleveland Center
09:00AM 41.8619 -81.2800 73° East 402 463 17,800 1,500 Climbing Cleveland Center
09:01AM 41.8858 -81.1269 78° East 410 472 19,300 1,500 Climbing Cleveland Center
09:02AM 41.9092 -80.9708 79° East 415 478 20,800 1,500 Climbing Cleveland Center
09:03AM 41.9325 -80.8203 78° East 420 483 22,300 1,500 Climbing Cleveland Center
09:04AM 41.9578 -80.6614 78° East 425 489 23,800 1,500 Climbing Cleveland Center
09:05AM 41.9828 -80.5078 78° East 425 489 25,300 1,500 Climbing Cleveland Center
09:06AM 42.0078 -80.3539 78° East 425 489 26,800 1,450 Climbing Cleveland Center
09:07AM 42.0303 -80.2031 79° East 420 483 28,200 1,150 Climbing Cleveland Center
09:08AM 42.0483 -80.0686 80° East 414 476 29,100 950 Climbing Cleveland Center
09:09AM 42.0728 -79.9175 78° East 409 471 30,100 1,000 Climbing Cleveland Center
09:10AM 42.0967 -79.7633 78° East 414 476 31,100 950 Climbing Cleveland Center
09:11AM 42.1183 -79.6061 79° East 419 482 32,000 950 Climbing Cleveland Center
09:12AM 42.1419 -79.4461 79° East 424 488 33,000 1,000 Climbing Cleveland Center
09:13AM 42.1653 -79.2861 79° East 430 495 34,000 950 Climbing Cleveland Center
09:14AM 42.1883 -79.1231 79° East 430 495 34,900 500 Climbing Cleveland Center
09:15AM 42.2092 -78.9600 80° East 430 495 35,000 50 Climbing Cleveland Center
09:16AM 42.2317 -78.7856 80° East 441 507 35,000 500 Level Cleveland Center
09:17AM 42.2519 -78.6253 80° East 447 514 36,000 1,000 Climbing Cleveland Center
09:18AM 42.2719 -78.4647 80° East 441 507 37,000 500 Climbing Cleveland Center
09:19AM 42.2917 -78.3039 81° East 431 496 37,000  Level Cleveland Center
09:20AM 42.3133 -78.1375 80° East 431 496 37,000  Level Cleveland Center
09:21AM 42.3361 -77.9400 81° East 459 528 37,000  Level Cleveland Center
09:22AM 42.3569 -77.7647 81° East 472 543 37,000  Level Cleveland Center
09:23AM 42.3756 -77.5897 82° East 472 543 37,000  Level Cleveland Center
09:25AM 42.4081 -77.3169 81° East 467 537 37,000  Level Boston Center
09:26AM 42.4256 -77.1494 82° East 457 526 37,000  Level Boston Center
09:27AM 42.4450 -76.9847 81° East 457 526 37,000  Level Boston Center
09:28AM 42.4642 -76.8144 81° East 452 520 37,000  Level Boston Center
09:29AM 42.4811 -76.6411 82° East 459 528 37,000  Level Boston Center
09:30AM 42.4919 -76.4586 85° East 469 540 37,000  Level Boston Center
09:31AM 42.4961 -76.2758 88° East 476 548 37,000 -45 Level Boston Center
09:32AM 42.5019 -76.1014 87° East 476 548 36,900  Descending Boston Center
09:33AM 42.5083 -75.8989 87° East 481 554 37,000 50 Climbing Boston Center
09:34AM 42.5114 -75.7244 89° East 475 547 37,000  Level Boston Center
09:35AM 42.5150 -75.5161 89° East 470 541 37,000  Level Boston Center
09:37AM 42.5217 -75.3417 87° East 464 534 37,000  Level Boston Center
09:38AM 42.5239 -75.1672 89° East 464 534 37,000  Level Boston Center
09:39AM 42.5281 -74.9956 88° East 457 526 37,000  Level Boston Center
09:39AM 42.5317 -74.8236 88° East 457 526 37,000  Level Boston Center
09:40AM 42.5333 -74.6436 89° East 462 532 37,000  Level Boston Center
09:42AM 42.5344 -74.4631 89° East 473 544 37,000  Level Boston Center
09:42AM 42.5397 -74.2858 88° East 473 544 37,000  Level Boston Center
09:43AM 42.5425 -74.1056 89° East 478 550 37,000  Level Boston Center
09:44AM 42.5428 -73.9308 90° East 478 550 37,000  Level Boston Center
09:45AM 42.5450 -73.7478 89° East 478 550 37,000  Level Boston Center
09:46AM 42.5467 -73.6039 89° East 478 550 37,000 -50 Level Boston Center
09:47AM 42.5486 -73.3897 89° East 478 550 36,900 -650 Descending Boston Center
09:48AM 42.5478 -73.2039 90° East 489 563 35,700 -1,623 Descending Boston Center
09:50AM 42.5469 -73.0094 90° East 483 556 33,600 -2,311 Descending Boston Center
09:51AM 42.5497 -72.8347 89° East 468 539 31,000 -2,585 Descending Boston Center
09:52AM 42.5481 -72.6656 91° East 451 519 28,000 -2,840 Descending Boston Center
09:53AM 42.5483 -72.4625 90° East 446 513 24,800 -3,025 Descending Boston Center
09:54AM 42.5483 -72.2964 90° East 441 507 21,900 -3,050 Descending Boston Center
09:55AM 42.5458 -72.1497 91° East 436 502 18,700 -2,876 Descending Boston Center
09:56AM 42.5369 -71.9753 94° East 431 496 16,100 -2,331 Descending Boston Center
09:57AM 42.5258 -71.8400 96° East 413 475 14,000 -2,186 Descending Boston Center
09:58AM 42.5083 -71.6683 98° East 408 470 11,800 -1,771 Descending Boston Center
09:58AM 42.5000 -71.5500 95° East 397 457 10,900 -897 Descending KA90
09:59AM 42.4833 -71.4167 100° East 329 379 10,200 -1,100 Descending KA90
10:00AM 42.4833 -71.3000 90° East 316 364 8,700 -1,300 Descending KA90
10:01AM 42.5000 -71.1833 79° East 283 326 7,600 -1,200 Descending KA90
10:02AM 42.4833 -71.1167 109° East 239 275 6,300 -1,250 Descending KA90
10:03AM 42.4167 -71.1500 200° South 235 270 5,100 -1,250 Descending KA90
10:04AM 42.3500 -71.1833 200° South 231 266 3,800 -1,120 Descending KA90
10:05AM 42.3475 -71.1789 127° Southeast 207 238 3,700 -575 Descending Boston Center
10:06AM 42.2950 -71.1378 150° Southeast 214 246 3,100 -703 Descending Boston Center
10:07AM 42.3000 -71.0667 85° East 193 222 2,400 -1,115 Descending KA90
10:08AM 42.3167 -71.0333 56° Northeast 145 167 1,000 -1,150 Descending KA90
10:09AM 42.3500 -71.0167 20° North 122 140 100 3,191 Descending KA90
10:11AM 42.4028 -70.9303 50° Northeast 131 151 11,000 5,109 Climbing Boston Center